sensor_id;sensor_type;location;lat;lon;timestamp;P1;durP1;ratioP1;P2;durP2;ratioP2
53056;SDS011;38940;50.096;4.012;2022-09-09T00:00:06;66.63;;;61.83;;
53056;SDS011;38940;50.096;4.012;2022-09-09T00:02:32;70.53;;;65.15;;
53056;SDS011;38940;50.096;4.012;2022-09-09T00:04:59;62.40;;;58.45;;
53056;SDS011;38940;50.096;4.012;2022-09-09T00:15:22;66.22;;;61.60;;
53056;SDS011;38940;50.096;4.012;2022-09-09T00:20:35;60.65;;;56.65;;
53056;SDS011;38940;50.096;4.012;2022-09-09T00:23:17;60.75;;;56.83;;
53056;SDS011;38940;50.096;4.012;2022-09-09T00:25:54;70.15;;;64.97;;
53056;SDS011;38940;50.096;4.012;2022-09-09T00:28:24;67.35;;;62.42;;
53056;SDS011;38940;50.096;4.012;2022-09-09T00:30:51;73.22;;;68.47;;
53056;SDS011;38940;50.096;4.012;2022-09-09T00:33:19;73.35;;;67.88;;
53056;SDS011;38940;50.096;4.012;2022-09-09T00:35:48;72.35;;;67.28;;
53056;SDS011;38940;50.096;4.012;2022-09-09T00:38:27;77.60;;;72.63;;
53056;SDS011;38940;50.096;4.012;2022-09-09T00:48:22;59.75;;;55.92;;
53056;SDS011;38940;50.096;4.012;2022-09-09T00:50:53;56.47;;;51.25;;
53056;SDS011;38940;50.096;4.012;2022-09-09T00:58:20;53.95;;;50.50;;
53056;SDS011;38940;50.096;4.012;2022-09-09T01:00:50;59.72;;;55.38;;
53056;SDS011;38940;50.096;4.012;2022-09-09T01:10:59;56.40;;;52.35;;
53056;SDS011;38940;50.096;4.012;2022-09-09T01:13:31;56.38;;;52.75;;
53056;SDS011;38940;50.096;4.012;2022-09-09T01:15:58;63.72;;;59.63;;
53056;SDS011;38940;50.096;4.012;2022-09-09T01:18:27;58.03;;;54.10;;
53056;SDS011;38940;50.096;4.012;2022-09-09T01:28:53;49.05;;;45.75;;
53056;SDS011;38940;50.096;4.012;2022-09-09T01:31:26;50.45;;;46.90;;
53056;SDS011;38940;50.096;4.012;2022-09-09T01:33:53;48.10;;;45.05;;
53056;SDS011;38940;50.096;4.012;2022-09-09T01:36:42;46.25;;;43.33;;
53056;SDS011;38940;50.096;4.012;2022-09-09T01:39:05;43.58;;;40.63;;
53056;SDS011;38940;50.096;4.012;2022-09-09T01:41:31;49.35;;;46.20;;
53056;SDS011;38940;50.096;4.012;2022-09-09T01:43:57;47.53;;;44.33;;
53056;SDS011;38940;50.096;4.012;2022-09-09T01:46:23;42.95;;;40.13;;
53056;SDS011;38940;50.096;4.012;2022-09-09T02:01:15;43.42;;;40.13;;
53056;SDS011;38940;50.096;4.012;2022-09-09T02:03:44;46.05;;;42.88;;
53056;SDS011;38940;50.096;4.012;2022-09-09T02:06:25;44.17;;;41.33;;
53056;SDS011;38940;50.096;4.012;2022-09-09T02:08:52;51.92;;;48.65;;
53056;SDS011;38940;50.096;4.012;2022-09-09T02:11:25;45.60;;;42.40;;
53056;SDS011;38940;50.096;4.012;2022-09-09T02:13:53;47.70;;;44.55;;
53056;SDS011;38940;50.096;4.012;2022-09-09T02:16:23;50.53;;;47.15;;
53056;SDS011;38940;50.096;4.012;2022-09-09T02:21:30;45.25;;;42.17;;
53056;SDS011;38940;50.096;4.012;2022-09-09T02:23:58;47.30;;;44.00;;
53056;SDS011;38940;50.096;4.012;2022-09-09T02:26:25;45.33;;;42.03;;
53056;SDS011;38940;50.096;4.012;2022-09-09T02:28:52;45.45;;;42.58;;
53056;SDS011;38940;50.096;4.012;2022-09-09T02:31:21;46.55;;;43.00;;
53056;SDS011;38940;50.096;4.012;2022-09-09T02:33:51;41.65;;;38.47;;
53056;SDS011;38940;50.096;4.012;2022-09-09T02:36:17;48.15;;;44.85;;
53056;SDS011;38940;50.096;4.012;2022-09-09T02:38:45;49.63;;;46.33;;
53056;SDS011;38940;50.096;4.012;2022-09-09T02:41:17;47.78;;;44.60;;
53056;SDS011;38940;50.096;4.012;2022-09-09T02:43:43;47.13;;;44.08;;
53056;SDS011;38940;50.096;4.012;2022-09-09T02:48:53;44.28;;;41.20;;
53056;SDS011;38940;50.096;4.012;2022-09-09T02:56:47;45.00;;;42.08;;
53056;SDS011;38940;50.096;4.012;2022-09-09T02:59:15;48.05;;;44.45;;
53056;SDS011;38940;50.096;4.012;2022-09-09T03:01:43;48.35;;;45.10;;
53056;SDS011;38940;50.096;4.012;2022-09-09T03:04:10;49.80;;;46.47;;
53056;SDS011;38940;50.096;4.012;2022-09-09T03:06:36;53.97;;;49.88;;
53056;SDS011;38940;50.096;4.012;2022-09-09T03:09:02;54.17;;;50.75;;
53056;SDS011;38940;50.096;4.012;2022-09-09T03:11:28;55.58;;;51.08;;
53056;SDS011;38940;50.096;4.012;2022-09-09T03:13:54;57.92;;;53.83;;
53056;SDS011;38940;50.096;4.012;2022-09-09T03:16:21;56.92;;;53.05;;
53056;SDS011;38940;50.096;4.012;2022-09-09T03:18:47;59.08;;;55.30;;
53056;SDS011;38940;50.096;4.012;2022-09-09T03:21:14;52.97;;;48.83;;
53056;SDS011;38940;50.096;4.012;2022-09-09T03:23:40;56.88;;;53.17;;
53056;SDS011;38940;50.096;4.012;2022-09-09T03:26:06;59.88;;;55.40;;
53056;SDS011;38940;50.096;4.012;2022-09-09T03:28:32;60.85;;;56.95;;
53056;SDS011;38940;50.096;4.012;2022-09-09T03:30:59;60.85;;;56.47;;
53056;SDS011;38940;50.096;4.012;2022-09-09T03:33:25;57.85;;;53.97;;
53056;SDS011;38940;50.096;4.012;2022-09-09T03:35:51;55.22;;;50.83;;
53056;SDS011;38940;50.096;4.012;2022-09-09T03:38:18;53.72;;;48.90;;
53056;SDS011;38940;50.096;4.012;2022-09-09T03:40:50;49.22;;;45.92;;
53056;SDS011;38940;50.096;4.012;2022-09-09T03:43:18;48.85;;;45.35;;
53056;SDS011;38940;50.096;4.012;2022-09-09T03:45:46;55.85;;;52.05;;
53056;SDS011;38940;50.096;4.012;2022-09-09T03:48:13;52.60;;;48.70;;
53056;SDS011;38940;50.096;4.012;2022-09-09T03:50:39;53.30;;;49.90;;
53056;SDS011;38940;50.096;4.012;2022-09-09T03:53:09;51.83;;;48.45;;
53056;SDS011;38940;50.096;4.012;2022-09-09T03:55:35;47.55;;;44.55;;
53056;SDS011;38940;50.096;4.012;2022-09-09T03:58:01;52.67;;;48.63;;
53056;SDS011;38940;50.096;4.012;2022-09-09T04:00:27;47.55;;;43.72;;
53056;SDS011;38940;50.096;4.012;2022-09-09T04:02:55;53.50;;;49.88;;
53056;SDS011;38940;50.096;4.012;2022-09-09T04:05:22;50.28;;;46.92;;
53056;SDS011;38940;50.096;4.012;2022-09-09T04:07:48;48.17;;;44.80;;
53056;SDS011;38940;50.096;4.012;2022-09-09T04:10:16;48.58;;;45.33;;
53056;SDS011;38940;50.096;4.012;2022-09-09T04:12:42;52.72;;;48.60;;
53056;SDS011;38940;50.096;4.012;2022-09-09T04:15:09;55.55;;;50.92;;
53056;SDS011;38940;50.096;4.012;2022-09-09T04:17:35;55.55;;;50.63;;
53056;SDS011;38940;50.096;4.012;2022-09-09T04:20:02;59.25;;;55.45;;
53056;SDS011;38940;50.096;4.012;2022-09-09T04:22:28;52.83;;;49.08;;
53056;SDS011;38940;50.096;4.012;2022-09-09T04:24:54;51.65;;;47.65;;
53056;SDS011;38940;50.096;4.012;2022-09-09T04:27:20;58.40;;;54.53;;
53056;SDS011;38940;50.096;4.012;2022-09-09T04:29:46;60.25;;;55.72;;
53056;SDS011;38940;50.096;4.012;2022-09-09T04:32:12;60.20;;;55.70;;
53056;SDS011;38940;50.096;4.012;2022-09-09T04:34:38;55.13;;;50.85;;
53056;SDS011;38940;50.096;4.012;2022-09-09T04:37:06;58.22;;;53.38;;
53056;SDS011;38940;50.096;4.012;2022-09-09T04:39:32;53.17;;;49.22;;
53056;SDS011;38940;50.096;4.012;2022-09-09T04:41:58;53.95;;;50.33;;
53056;SDS011;38940;50.096;4.012;2022-09-09T04:44:24;57.67;;;53.33;;
53056;SDS011;38940;50.096;4.012;2022-09-09T04:46:50;56.97;;;53.10;;
53056;SDS011;38940;50.096;4.012;2022-09-09T04:49:16;55.22;;;50.75;;
53056;SDS011;38940;50.096;4.012;2022-09-09T04:51:42;53.95;;;50.35;;
53056;SDS011;38940;50.096;4.012;2022-09-09T04:54:08;49.92;;;46.55;;
53056;SDS011;38940;50.096;4.012;2022-09-09T04:56:35;52.70;;;48.92;;
53056;SDS011;38940;50.096;4.012;2022-09-09T04:59:01;57.53;;;53.78;;
53056;SDS011;38940;50.096;4.012;2022-09-09T05:01:28;53.22;;;49.80;;
53056;SDS011;38940;50.096;4.012;2022-09-09T05:03:54;60.53;;;56.63;;
53056;SDS011;38940;50.096;4.012;2022-09-09T05:06:20;56.08;;;52.38;;
53056;SDS011;38940;50.096;4.012;2022-09-09T05:08:47;57.65;;;53.63;;
53056;SDS011;38940;50.096;4.012;2022-09-09T05:11:21;58.17;;;54.38;;
53056;SDS011;38940;50.096;4.012;2022-09-09T05:13:49;72.63;;;58.20;;
53056;SDS011;38940;50.096;4.012;2022-09-09T05:16:15;64.68;;;59.97;;
53056;SDS011;38940;50.096;4.012;2022-09-09T05:18:42;59.28;;;55.00;;
53056;SDS011;38940;50.096;4.012;2022-09-09T05:21:08;53.53;;;49.80;;
53056;SDS011;38940;50.096;4.012;2022-09-09T05:23:35;60.70;;;55.88;;
53056;SDS011;38940;50.096;4.012;2022-09-09T05:26:02;58.88;;;54.90;;
53056;SDS011;38940;50.096;4.012;2022-09-09T05:28:28;55.95;;;51.75;;
53056;SDS011;38940;50.096;4.012;2022-09-09T05:30:59;69.07;;;62.08;;
53056;SDS011;38940;50.096;4.012;2022-09-09T05:33:26;64.20;;;59.90;;
53056;SDS011;38940;50.096;4.012;2022-09-09T05:36:02;57.45;;;53.65;;
53056;SDS011;38940;50.096;4.012;2022-09-09T05:38:29;56.88;;;52.85;;
53056;SDS011;38940;50.096;4.012;2022-09-09T05:40:55;52.00;;;48.38;;
53056;SDS011;38940;50.096;4.012;2022-09-09T05:43:22;62.58;;;58.38;;
53056;SDS011;38940;50.096;4.012;2022-09-09T05:45:58;64.03;;;59.92;;
53056;SDS011;38940;50.096;4.012;2022-09-09T05:48:27;64.65;;;60.25;;
53056;SDS011;38940;50.096;4.012;2022-09-09T05:50:53;66.97;;;62.00;;
53056;SDS011;38940;50.096;4.012;2022-09-09T05:53:20;67.70;;;62.95;;
53056;SDS011;38940;50.096;4.012;2022-09-09T05:55:46;66.68;;;62.38;;
53056;SDS011;38940;50.096;4.012;2022-09-09T05:58:13;73.10;;;67.10;;
53056;SDS011;38940;50.096;4.012;2022-09-09T06:00:41;67.97;;;63.40;;
53056;SDS011;38940;50.096;4.012;2022-09-09T06:03:09;64.10;;;59.60;;
53056;SDS011;38940;50.096;4.012;2022-09-09T06:05:36;61.50;;;57.00;;
53056;SDS011;38940;50.096;4.012;2022-09-09T06:08:02;62.78;;;58.58;;
53056;SDS011;38940;50.096;4.012;2022-09-09T06:10:28;62.60;;;58.30;;
53056;SDS011;38940;50.096;4.012;2022-09-09T06:12:54;64.93;;;60.40;;
53056;SDS011;38940;50.096;4.012;2022-09-09T06:15:20;59.47;;;55.17;;
53056;SDS011;38940;50.096;4.012;2022-09-09T06:17:46;59.15;;;55.22;;
53056;SDS011;38940;50.096;4.012;2022-09-09T06:20:14;63.80;;;59.58;;
53056;SDS011;38940;50.096;4.012;2022-09-09T06:22:43;56.88;;;53.17;;
53056;SDS011;38940;50.096;4.012;2022-09-09T06:25:11;59.33;;;55.42;;
53056;SDS011;38940;50.096;4.012;2022-09-09T06:27:37;55.40;;;51.33;;
53056;SDS011;38940;50.096;4.012;2022-09-09T06:30:03;59.45;;;54.40;;
53056;SDS011;38940;50.096;4.012;2022-09-09T06:32:30;58.35;;;54.30;;
53056;SDS011;38940;50.096;4.012;2022-09-09T06:34:58;67.57;;;62.58;;
53056;SDS011;38940;50.096;4.012;2022-09-09T06:37:26;60.63;;;56.35;;
53056;SDS011;38940;50.096;4.012;2022-09-09T06:39:52;64.38;;;60.17;;
53056;SDS011;38940;50.096;4.012;2022-09-09T06:42:19;55.97;;;52.33;;
53056;SDS011;38940;50.096;4.012;2022-09-09T06:44:45;52.08;;;48.20;;
53056;SDS011;38940;50.096;4.012;2022-09-09T06:47:11;64.28;;;60.08;;
53056;SDS011;38940;50.096;4.012;2022-09-09T06:49:37;63.97;;;59.70;;
53056;SDS011;38940;50.096;4.012;2022-09-09T06:52:03;65.68;;;61.45;;
53056;SDS011;38940;50.096;4.012;2022-09-09T06:54:30;58.95;;;54.63;;
53056;SDS011;38940;50.096;4.012;2022-09-09T06:56:56;68.05;;;63.25;;
53056;SDS011;38940;50.096;4.012;2022-09-09T06:59:22;61.35;;;56.75;;
53056;SDS011;38940;50.096;4.012;2022-09-09T07:01:48;67.88;;;63.47;;
53056;SDS011;38940;50.096;4.012;2022-09-09T07:04:16;67.20;;;62.78;;
53056;SDS011;38940;50.096;4.012;2022-09-09T07:06:45;77.07;;;71.97;;
53056;SDS011;38940;50.096;4.012;2022-09-09T07:09:12;74.53;;;68.82;;
53056;SDS011;38940;50.096;4.012;2022-09-09T07:11:44;75.40;;;69.50;;
53056;SDS011;38940;50.096;4.012;2022-09-09T07:14:10;63.17;;;59.08;;
53056;SDS011;38940;50.096;4.012;2022-09-09T07:16:40;64.03;;;58.95;;
53056;SDS011;38940;50.096;4.012;2022-09-09T07:19:06;67.68;;;62.58;;
53056;SDS011;38940;50.096;4.012;2022-09-09T07:21:33;69.75;;;64.90;;
53056;SDS011;38940;50.096;4.012;2022-09-09T07:23:59;71.18;;;66.53;;
53056;SDS011;38940;50.096;4.012;2022-09-09T07:26:27;71.18;;;66.38;;
53056;SDS011;38940;50.096;4.012;2022-09-09T07:28:53;73.10;;;68.38;;
53056;SDS011;38940;50.096;4.012;2022-09-09T07:31:25;67.72;;;63.28;;
53056;SDS011;38940;50.096;4.012;2022-09-09T07:33:52;75.10;;;69.20;;
53056;SDS011;38940;50.096;4.012;2022-09-09T07:36:19;63.10;;;58.85;;
53056;SDS011;38940;50.096;4.012;2022-09-09T07:38:50;68.50;;;63.60;;
53056;SDS011;38940;50.096;4.012;2022-09-09T07:41:18;74.45;;;69.10;;
53056;SDS011;38940;50.096;4.012;2022-09-09T07:43:45;76.60;;;71.18;;
53056;SDS011;38940;50.096;4.012;2022-09-09T07:46:12;68.38;;;63.10;;
53056;SDS011;38940;50.096;4.012;2022-09-09T07:48:43;59.78;;;55.88;;
53056;SDS011;38940;50.096;4.012;2022-09-09T07:51:11;74.32;;;69.35;;
53056;SDS011;38940;50.096;4.012;2022-09-09T07:53:38;70.40;;;65.50;;
53056;SDS011;38940;50.096;4.012;2022-09-09T07:56:05;69.93;;;65.35;;
53056;SDS011;38940;50.096;4.012;2022-09-09T07:58:32;63.70;;;59.63;;
53056;SDS011;38940;50.096;4.012;2022-09-09T08:00:58;73.97;;;69.20;;
53056;SDS011;38940;50.096;4.012;2022-09-09T08:03:24;59.85;;;55.58;;
53056;SDS011;38940;50.096;4.012;2022-09-09T08:05:50;60.25;;;55.67;;
53056;SDS011;38940;50.096;4.012;2022-09-09T08:08:16;57.63;;;53.22;;
53056;SDS011;38940;50.096;4.012;2022-09-09T08:10:42;64.05;;;59.65;;
53056;SDS011;38940;50.096;4.012;2022-09-09T08:13:08;60.88;;;56.03;;
53056;SDS011;38940;50.096;4.012;2022-09-09T08:15:35;61.03;;;56.30;;
53056;SDS011;38940;50.096;4.012;2022-09-09T08:18:01;60.33;;;56.28;;
53056;SDS011;38940;50.096;4.012;2022-09-09T08:20:28;53.15;;;49.67;;
53056;SDS011;38940;50.096;4.012;2022-09-09T08:22:55;53.72;;;50.08;;
53056;SDS011;38940;50.096;4.012;2022-09-09T08:25:21;55.65;;;51.22;;
53056;SDS011;38940;50.096;4.012;2022-09-09T08:27:47;57.10;;;53.20;;
53056;SDS011;38940;50.096;4.012;2022-09-09T08:30:13;60.08;;;55.85;;
53056;SDS011;38940;50.096;4.012;2022-09-09T08:32:39;57.30;;;53.20;;
53056;SDS011;38940;50.096;4.012;2022-09-09T08:35:06;58.50;;;54.67;;
53056;SDS011;38940;50.096;4.012;2022-09-09T08:37:32;55.05;;;51.10;;
53056;SDS011;38940;50.096;4.012;2022-09-09T08:39:58;56.80;;;53.00;;
53056;SDS011;38940;50.096;4.012;2022-09-09T08:45:12;56.30;;;52.03;;
53056;SDS011;38940;50.096;4.012;2022-09-09T08:48:04;53.58;;;49.53;;
53056;SDS011;38940;50.096;4.012;2022-09-09T08:50:31;60.17;;;55.92;;
53056;SDS011;38940;50.096;4.012;2022-09-09T08:55:48;58.00;;;53.47;;
53056;SDS011;38940;50.096;4.012;2022-09-09T08:58:20;62.95;;;58.83;;
53056;SDS011;38940;50.096;4.012;2022-09-09T09:03:48;65.13;;;59.50;;
53056;SDS011;38940;50.096;4.012;2022-09-09T09:11:37;62.33;;;58.08;;
53056;SDS011;38940;50.096;4.012;2022-09-09T09:14:25;62.08;;;57.30;;
53056;SDS011;38940;50.096;4.012;2022-09-09T09:19:16;71.07;;;65.30;;
53056;SDS011;38940;50.096;4.012;2022-09-09T09:21:44;73.72;;;68.35;;
53056;SDS011;38940;50.096;4.012;2022-09-09T09:24:35;70.07;;;65.43;;
53056;SDS011;38940;50.096;4.012;2022-09-09T09:26:57;76.00;;;70.82;;
53056;SDS011;38940;50.096;4.012;2022-09-09T09:29:24;74.32;;;68.57;;
53056;SDS011;38940;50.096;4.012;2022-09-09T09:31:51;75.38;;;70.22;;
53056;SDS011;38940;50.096;4.012;2022-09-09T09:34:19;80.30;;;74.75;;
53056;SDS011;38940;50.096;4.012;2022-09-09T09:36:53;71.90;;;66.95;;
53056;SDS011;38940;50.096;4.012;2022-09-09T09:39:24;77.25;;;71.85;;
53056;SDS011;38940;50.096;4.012;2022-09-09T09:41:50;76.95;;;71.63;;
53056;SDS011;38940;50.096;4.012;2022-09-09T09:44:27;66.95;;;62.38;;
53056;SDS011;38940;50.096;4.012;2022-09-09T09:47:04;72.50;;;67.78;;
53056;SDS011;38940;50.096;4.012;2022-09-09T09:49:31;74.82;;;69.72;;
53056;SDS011;38940;50.096;4.012;2022-09-09T09:52:03;66.47;;;62.20;;
53056;SDS011;38940;50.096;4.012;2022-09-09T09:54:30;65.93;;;61.05;;
53056;SDS011;38940;50.096;4.012;2022-09-09T09:57:06;77.50;;;71.75;;
53056;SDS011;38940;50.096;4.012;2022-09-09T09:59:36;72.25;;;66.78;;
53056;SDS011;38940;50.096;4.012;2022-09-09T10:04:39;76.63;;;71.53;;
53056;SDS011;38940;50.096;4.012;2022-09-09T10:07:39;72.50;;;67.60;;
53056;SDS011;38940;50.096;4.012;2022-09-09T10:09:59;71.13;;;66.28;;
53056;SDS011;38940;50.096;4.012;2022-09-09T10:12:30;77.65;;;72.18;;
53056;SDS011;38940;50.096;4.012;2022-09-09T10:15:02;76.63;;;71.53;;
53056;SDS011;38940;50.096;4.012;2022-09-09T10:17:48;72.37;;;67.50;;
53056;SDS011;38940;50.096;4.012;2022-09-09T10:33:44;66.32;;;62.05;;
53056;SDS011;38940;50.096;4.012;2022-09-09T10:36:18;60.30;;;55.17;;
53056;SDS011;38940;50.096;4.012;2022-09-09T10:38:45;57.92;;;53.83;;
53056;SDS011;38940;50.096;4.012;2022-09-09T10:41:16;66.97;;;61.58;;
53056;SDS011;38940;50.096;4.012;2022-09-09T10:46:32;66.60;;;62.08;;
53056;SDS011;38940;50.096;4.012;2022-09-09T10:49:04;68.03;;;63.40;;
53056;SDS011;38940;50.096;4.012;2022-09-09T10:56:56;69.13;;;64.38;;
53056;SDS011;38940;50.096;4.012;2022-09-09T10:59:26;67.80;;;63.20;;
53056;SDS011;38940;50.096;4.012;2022-09-09T11:01:59;70.93;;;65.53;;
53056;SDS011;38940;50.096;4.012;2022-09-09T11:04:28;74.15;;;69.03;;
53056;SDS011;38940;50.096;4.012;2022-09-09T11:06:57;69.72;;;65.18;;
53056;SDS011;38940;50.096;4.012;2022-09-09T11:09:30;66.85;;;62.53;;
53056;SDS011;38940;50.096;4.012;2022-09-09T11:11:58;76.90;;;71.65;;
53056;SDS011;38940;50.096;4.012;2022-09-09T11:17:11;76.45;;;71.47;;
53056;SDS011;38940;50.096;4.012;2022-09-09T11:19:40;78.93;;;73.83;;
53056;SDS011;38940;50.096;4.012;2022-09-09T11:24:50;68.10;;;62.67;;
53056;SDS011;38940;50.096;4.012;2022-09-09T11:30:24;72.78;;;68.05;;
53056;SDS011;38940;50.096;4.012;2022-09-09T11:38:19;71.10;;;66.50;;
53056;SDS011;38940;50.096;4.012;2022-09-09T11:40:47;57.03;;;53.38;;
53056;SDS011;38940;50.096;4.012;2022-09-09T11:43:15;71.00;;;65.78;;
53056;SDS011;38940;50.096;4.012;2022-09-09T11:45:42;67.60;;;63.00;;
53056;SDS011;38940;50.096;4.012;2022-09-09T11:48:22;77.75;;;72.07;;
53056;SDS011;38940;50.096;4.012;2022-09-09T11:51:01;71.43;;;66.57;;
53056;SDS011;38940;50.096;4.012;2022-09-09T11:53:29;68.88;;;64.32;;
53056;SDS011;38940;50.096;4.012;2022-09-09T11:56:03;70.10;;;65.50;;
53056;SDS011;38940;50.096;4.012;2022-09-09T11:58:32;64.28;;;59.80;;
53056;SDS011;38940;50.096;4.012;2022-09-09T12:01:00;65.05;;;59.60;;
53056;SDS011;38940;50.096;4.012;2022-09-09T12:06:09;62.75;;;58.28;;
53056;SDS011;38940;50.096;4.012;2022-09-09T12:08:36;66.10;;;61.80;;
53056;SDS011;38940;50.096;4.012;2022-09-09T12:11:02;62.80;;;58.60;;
53056;SDS011;38940;50.096;4.012;2022-09-09T12:13:29;71.30;;;66.57;;
53056;SDS011;38940;50.096;4.012;2022-09-09T12:15:57;69.60;;;65.18;;
53056;SDS011;38940;50.096;4.012;2022-09-09T12:18:25;76.55;;;71.10;;
53056;SDS011;38940;50.096;4.012;2022-09-09T12:20:54;75.55;;;70.60;;
53056;SDS011;38940;50.096;4.012;2022-09-09T12:28:25;73.55;;;68.55;;
53056;SDS011;38940;50.096;4.012;2022-09-09T12:30:58;61.38;;;56.80;;
53056;SDS011;38940;50.096;4.012;2022-09-09T12:33:33;61.10;;;57.15;;
53056;SDS011;38940;50.096;4.012;2022-09-09T12:35:59;53.58;;;49.47;;
53056;SDS011;38940;50.096;4.012;2022-09-09T12:38:35;58.42;;;54.15;;
53056;SDS011;38940;50.096;4.012;2022-09-09T12:41:02;58.38;;;54.63;;
53056;SDS011;38940;50.096;4.012;2022-09-09T12:43:28;57.67;;;53.75;;
53056;SDS011;38940;50.096;4.012;2022-09-09T12:46:02;65.43;;;61.22;;
53056;SDS011;38940;50.096;4.012;2022-09-09T12:48:31;62.72;;;58.67;;
53056;SDS011;38940;50.096;4.012;2022-09-09T12:50:58;70.53;;;65.78;;
53056;SDS011;38940;50.096;4.012;2022-09-09T12:53:26;71.75;;;66.43;;
53056;SDS011;38940;50.096;4.012;2022-09-09T12:58:19;71.20;;;66.57;;
53056;SDS011;38940;50.096;4.012;2022-09-09T13:00:51;71.00;;;66.43;;
53056;SDS011;38940;50.096;4.012;2022-09-09T13:03:20;71.53;;;66.60;;
53056;SDS011;38940;50.096;4.012;2022-09-09T13:05:46;71.28;;;66.43;;
53056;SDS011;38940;50.096;4.012;2022-09-09T13:08:13;69.10;;;64.32;;
53056;SDS011;38940;50.096;4.012;2022-09-09T13:13:12;76.40;;;71.55;;
53056;SDS011;38940;50.096;4.012;2022-09-09T13:15:39;63.83;;;59.75;;
53056;SDS011;38940;50.096;4.012;2022-09-09T13:18:06;89.47;;;83.78;;
53056;SDS011;38940;50.096;4.012;2022-09-09T13:20:37;93.72;;;87.38;;
53056;SDS011;38940;50.096;4.012;2022-09-09T13:23:03;84.80;;;79.43;;
53056;SDS011;38940;50.096;4.012;2022-09-09T13:25:29;88.32;;;82.18;;
53056;SDS011;38940;50.096;4.012;2022-09-09T13:27:59;96.22;;;90.13;;
53056;SDS011;38940;50.096;4.012;2022-09-09T13:30:32;85.13;;;79.72;;
53056;SDS011;38940;50.096;4.012;2022-09-09T13:35:55;82.95;;;77.35;;
53056;SDS011;38940;50.096;4.012;2022-09-09T13:38:22;66.57;;;62.25;;
53056;SDS011;38940;50.096;4.012;2022-09-09T13:40:58;92.00;;;85.93;;
53056;SDS011;38940;50.096;4.012;2022-09-09T13:43:27;94.47;;;88.45;;
53056;SDS011;38940;50.096;4.012;2022-09-09T13:45:57;95.18;;;89.07;;
53056;SDS011;38940;50.096;4.012;2022-09-09T13:48:26;79.45;;;74.28;;
53056;SDS011;38940;50.096;4.012;2022-09-09T13:50:53;82.95;;;77.68;;
53056;SDS011;38940;50.096;4.012;2022-09-09T13:53:19;54.60;;;51.13;;
53056;SDS011;38940;50.096;4.012;2022-09-09T13:55:45;78.70;;;73.55;;
53056;SDS011;38940;50.096;4.012;2022-09-09T13:58:15;65.68;;;61.42;;
53056;SDS011;38940;50.096;4.012;2022-09-09T14:00:43;65.15;;;60.30;;
53056;SDS011;38940;50.096;4.012;2022-09-09T14:03:09;67.90;;;63.42;;
53056;SDS011;38940;50.096;4.012;2022-09-09T14:05:35;75.13;;;70.30;;
53056;SDS011;38940;50.096;4.012;2022-09-09T14:08:06;77.45;;;72.50;;
53056;SDS011;38940;50.096;4.012;2022-09-09T14:10:32;74.10;;;69.28;;
53056;SDS011;38940;50.096;4.012;2022-09-09T14:13:00;70.97;;;66.38;;
53056;SDS011;38940;50.096;4.012;2022-09-09T14:15:26;65.25;;;61.08;;
53056;SDS011;38940;50.096;4.012;2022-09-09T14:17:54;76.13;;;71.13;;
53056;SDS011;38940;50.096;4.012;2022-09-09T14:20:20;71.28;;;66.53;;
53056;SDS011;38940;50.096;4.012;2022-09-09T14:22:46;78.90;;;73.57;;
53056;SDS011;38940;50.096;4.012;2022-09-09T14:25:12;78.63;;;73.60;;
53056;SDS011;38940;50.096;4.012;2022-09-09T14:27:39;74.82;;;69.88;;
53056;SDS011;38940;50.096;4.012;2022-09-09T14:30:05;72.65;;;67.90;;
53056;SDS011;38940;50.096;4.012;2022-09-09T14:32:32;66.57;;;61.78;;
53056;SDS011;38940;50.096;4.012;2022-09-09T14:34:58;72.15;;;67.55;;
53056;SDS011;38940;50.096;4.012;2022-09-09T14:37:24;82.47;;;77.13;;
53056;SDS011;38940;50.096;4.012;2022-09-09T14:39:51;83.30;;;77.57;;
53056;SDS011;38940;50.096;4.012;2022-09-09T14:42:17;74.25;;;68.82;;
53056;SDS011;38940;50.096;4.012;2022-09-09T14:44:43;50.55;;;46.85;;
53056;SDS011;38940;50.096;4.012;2022-09-09T14:47:10;66.90;;;62.38;;
53056;SDS011;38940;50.096;4.012;2022-09-09T14:49:36;85.53;;;79.75;;
53056;SDS011;38940;50.096;4.012;2022-09-09T14:52:02;78.28;;;73.10;;
53056;SDS011;38940;50.096;4.012;2022-09-09T14:54:29;84.05;;;78.72;;
53056;SDS011;38940;50.096;4.012;2022-09-09T14:56:55;75.70;;;70.80;;
53056;SDS011;38940;50.096;4.012;2022-09-09T14:59:21;85.40;;;79.95;;
53056;SDS011;38940;50.096;4.012;2022-09-09T15:01:47;77.00;;;71.40;;
53056;SDS011;38940;50.096;4.012;2022-09-09T15:04:14;75.18;;;70.38;;
53056;SDS011;38940;50.096;4.012;2022-09-09T15:06:40;84.53;;;78.93;;
53056;SDS011;38940;50.096;4.012;2022-09-09T15:09:09;90.53;;;84.30;;
53056;SDS011;38940;50.096;4.012;2022-09-09T15:11:36;67.78;;;62.97;;
53056;SDS011;38940;50.096;4.012;2022-09-09T15:14:03;82.97;;;76.97;;
53056;SDS011;38940;50.096;4.012;2022-09-09T15:16:29;81.80;;;76.60;;
53056;SDS011;38940;50.096;4.012;2022-09-09T15:18:57;64.30;;;60.13;;
53056;SDS011;38940;50.096;4.012;2022-09-09T15:21:25;73.57;;;68.38;;
53056;SDS011;38940;50.096;4.012;2022-09-09T15:23:51;71.28;;;66.65;;
53056;SDS011;38940;50.096;4.012;2022-09-09T15:26:17;86.38;;;80.53;;
53056;SDS011;38940;50.096;4.012;2022-09-09T15:28:45;80.32;;;74.72;;
53056;SDS011;38940;50.096;4.012;2022-09-09T15:31:22;86.97;;;80.63;;
53056;SDS011;38940;50.096;4.012;2022-09-09T15:33:49;74.60;;;69.90;;
53056;SDS011;38940;50.096;4.012;2022-09-09T15:36:19;76.88;;;71.88;;
53056;SDS011;38940;50.096;4.012;2022-09-09T15:38:46;72.95;;;68.13;;
53056;SDS011;38940;50.096;4.012;2022-09-09T15:41:13;70.68;;;65.75;;
53056;SDS011;38940;50.096;4.012;2022-09-09T15:43:43;71.30;;;66.75;;
53056;SDS011;38940;50.096;4.012;2022-09-09T15:46:52;54.90;;;51.42;;
53056;SDS011;38940;50.096;4.012;2022-09-09T15:49:08;48.85;;;45.78;;
53056;SDS011;38940;50.096;4.012;2022-09-09T15:51:34;67.53;;;63.22;;
53056;SDS011;38940;50.096;4.012;2022-09-09T15:54:02;47.85;;;44.80;;
53056;SDS011;38940;50.096;4.012;2022-09-09T15:56:28;67.47;;;63.20;;
53056;SDS011;38940;50.096;4.012;2022-09-09T15:58:58;62.28;;;58.33;;
53056;SDS011;38940;50.096;4.012;2022-09-09T16:01:25;64.68;;;60.33;;
53056;SDS011;38940;50.096;4.012;2022-09-09T16:03:51;65.93;;;61.42;;
53056;SDS011;38940;50.096;4.012;2022-09-09T16:06:19;68.45;;;63.90;;
53056;SDS011;38940;50.096;4.012;2022-09-09T16:08:46;60.42;;;56.58;;
53056;SDS011;38940;50.096;4.012;2022-09-09T16:11:18;68.85;;;64.40;;
53056;SDS011;38940;50.096;4.012;2022-09-09T16:13:45;59.97;;;56.13;;
53056;SDS011;38940;50.096;4.012;2022-09-09T16:16:12;81.78;;;76.22;;
53056;SDS011;38940;50.096;4.012;2022-09-09T16:18:42;56.35;;;51.97;;
53056;SDS011;38940;50.096;4.012;2022-09-09T16:21:12;59.80;;;55.63;;
53056;SDS011;38940;50.096;4.012;2022-09-09T16:23:39;54.08;;;50.58;;
53056;SDS011;38940;50.096;4.012;2022-09-09T16:26:05;56.33;;;52.65;;
53056;SDS011;38940;50.096;4.012;2022-09-09T16:28:31;42.97;;;40.17;;
53056;SDS011;38940;50.096;4.012;2022-09-09T16:30:57;43.58;;;40.53;;
53056;SDS011;38940;50.096;4.012;2022-09-09T16:33:23;57.85;;;53.92;;
53056;SDS011;38940;50.096;4.012;2022-09-09T16:38:43;50.40;;;47.22;;
53056;SDS011;38940;50.096;4.012;2022-09-09T16:41:12;52.90;;;49.13;;